Time;durP1;ratioP1;P1;durP2;ratioP2;P2;SDS_P1;SDS_P2;PMS_P1;PMS_P2;Temp;Humidity;BMP_temperature;BMP_pressure;BME280_temperature;BME280_humidity;BME280_pressure;Samples;Min_cycle;Max_cycle;Signal;HPM_P1;HPM_P2
2023/04/20 00:00:34;;;;;;;4.72;3.30;;;;;;;2.20;100.00;98752.22;4159941;28;20129;-74
2023/04/20 00:02:35;;;;;;;5.40;3.55;;;;;;;2.19;100.00;98739.69;4160918;28;20056;-74
2023/04/20 00:04:35;;;;;;;5.43;3.70;;;;;;;2.19;100.00;98738.91;4160067;28;20057;-75
2023/04/20 00:06:36;;;;;;;4.53;3.83;;;;;;;2.11;100.00;98736.94;4161472;28;20087;-74
2023/04/20 00:08:36;;;;;;;3.50;3.08;;;;;;;2.08;100.00;98729.41;4162819;28;20412;-74
2023/04/20 00:10:37;;;;;;;5.75;3.55;;;;;;;2.09;100.00;98731.81;4160998;28;20573;-75
2023/04/20 00:12:37;;;;;;;4.28;3.47;;;;;;;1.93;100.00;98719.69;4160942;28;20048;-75
2023/04/20 00:14:37;;;;;;;4.22;3.40;;;;;;;1.87;100.00;98718.22;4162642;28;20402;-74
2023/04/20 00:16:38;;;;;;;6.55;3.90;;;;;;;1.90;100.00;98714.84;4164829;28;20120;-74
2023/04/20 00:18:39;;;;;;;4.03;2.97;;;;;;;1.87;100.00;98721.75;4159618;28;20037;-75
2023/04/20 00:20:39;;;;;;;5.05;3.28;;;;;;;1.91;100.00;98714.56;4161230;28;20091;-75
2023/04/20 00:22:40;;;;;;;4.28;3.10;;;;;;;1.93;100.00;98720.50;4160067;28;20628;-74
2023/04/20 00:24:40;;;;;;;4.35;3.13;;;;;;;1.92;100.00;98716.16;4162534;28;20049;-74
2023/04/20 00:26:40;;;;;;;4.82;3.47;;;;;;;1.91;100.00;98711.03;4162072;28;20044;-74
2023/04/20 00:28:40;;;;;;;5.00;3.60;;;;;;;1.79;100.00;98716.25;4164313;28;20441;-74
2023/04/20 00:30:41;;;;;;;5.97;3.45;;;;;;;1.81;100.00;98714.00;4160538;28;20033;-74
2023/04/20 00:32:41;;;;;;;4.47;3.15;;;;;;;1.84;100.00;98713.41;4160976;28;20063;-74
2023/04/20 00:34:41;;;;;;;4.05;3.20;;;;;;;1.88;100.00;98712.44;4163840;28;20107;-74
2023/04/20 00:36:43;;;;;;;3.95;2.88;;;;;;;1.86;100.00;98703.78;4163475;28;20770;-74
2023/04/20 00:38:43;;;;;;;5.43;3.53;;;;;;;1.82;100.00;98697.34;4160318;28;20053;-74
2023/04/20 00:40:47;;;;;;;3.60;2.88;;;;;;;1.84;100.00;98706.03;4165028;28;20459;-74
2023/04/20 00:42:47;;;;;;;4.22;3.17;;;;;;;1.83;100.00;98707.16;4160662;28;20038;-74
2023/04/20 00:44:49;;;;;;;4.13;3.20;;;;;;;1.83;100.00;98701.69;4160163;28;20034;-74
2023/04/20 00:46:52;;;;;;;3.92;3.08;;;;;;;1.87;100.00;98712.75;4159484;28;20053;-74
2023/04/20 00:48:53;;;;;;;5.25;2.95;;;;;;;1.87;100.00;98702.66;4159995;28;20129;-74
2023/04/20 00:50:53;;;;;;;4.80;3.65;;;;;;;1.84;100.00;98703.28;4160293;28;20446;-74
2023/04/20 00:52:54;;;;;;;3.78;3.30;;;;;;;1.87;100.00;98699.13;4163044;28;20474;-74
2023/04/20 00:54:54;;;;;;;4.10;3.10;;;;;;;1.87;100.00;98697.19;4161245;28;20045;-74
2023/04/20 00:56:56;;;;;;;4.53;3.25;;;;;;;1.88;100.00;98698.81;4163931;28;20452;-74
2023/04/20 00:58:57;;;;;;;3.92;3.28;;;;;;;1.90;100.00;98699.31;4164099;28;20515;-74
2023/04/20 01:00:57;;;;;;;4.15;3.30;;;;;;;1.87;100.00;98694.47;4159228;28;20152;-74
2023/04/20 01:02:58;;;;;;;4.35;3.50;;;;;;;1.84;100.00;98692.38;4160056;28;20095;-74
2023/04/20 01:04:58;;;;;;;4.20;3.13;;;;;;;1.83;100.00;98692.72;4165777;28;20049;-74
2023/04/20 01:06:58;;;;;;;5.50;3.70;;;;;;;1.83;100.00;98679.88;4161153;28;20053;-74
2023/04/20 01:08:59;;;;;;;5.35;3.22;;;;;;;1.88;100.00;98685.16;4162062;28;20084;-74
2023/04/20 01:10:59;;;;;;;4.20;3.28;;;;;;;1.92;100.00;98677.97;4159606;28;20049;-74
2023/04/20 01:12:59;;;;;;;4.43;3.35;;;;;;;1.93;100.00;98681.50;4176482;28;20084;-74
2023/04/20 01:15:04;;;;;;;4.03;3.20;;;;;;;1.95;100.00;98679.25;4168143;28;20040;-74
2023/04/20 01:17:05;;;;;;;4.40;3.25;;;;;;;1.99;100.00;98680.25;4160936;28;20485;-74
2023/04/20 01:19:05;;;;;;;5.00;3.53;;;;;;;1.99;100.00;98677.50;4159521;28;20052;-74
2023/04/20 01:21:06;;;;;;;4.50;3.08;;;;;;;1.96;100.00;98675.41;4161347;28;20041;-74
2023/04/20 01:23:06;;;;;;;3.63;3.15;;;;;;;1.97;100.00;98677.00;4161613;28;20048;-74
2023/04/20 01:25:07;;;;;;;5.15;3.45;;;;;;;1.95;100.00;98671.88;4144114;28;20530;-74
2023/04/20 01:27:08;;;;;;;4.07;3.05;;;;;;;1.97;100.00;98663.34;4160116;28;20084;-74
2023/04/20 01:29:08;;;;;;;4.28;3.67;;;;;;;1.97;100.00;98664.16;4159423;28;20046;-74
2023/04/20 01:31:10;;;;;;;6.68;3.42;;;;;;;2.01;100.00;98664.34;4159333;28;20073;-74
2023/04/20 01:33:10;;;;;;;4.32;2.92;;;;;;;2.05;100.00;98659.03;4141468;28;20611;-74
2023/04/20 01:35:10;;;;;;;5.95;3.63;;;;;;;2.15;100.00;98661.47;4167285;28;20119;-74
2023/04/20 01:37:11;;;;;;;4.57;3.38;;;;;;;2.16;100.00;98661.19;4161530;28;20034;-74
2023/04/20 01:39:11;;;;;;;4.13;3.05;;;;;;;2.18;100.00;98658.13;4160549;28;20124;-74
2023/04/20 01:41:12;;;;;;;3.95;3.10;;;;;;;2.18;100.00;98656.19;4162211;28;20045;-74
2023/04/20 01:43:12;;;;;;;3.83;3.20;;;;;;;2.15;100.00;98656.84;4163740;28;20524;-74
2023/04/20 01:45:13;;;;;;;4.90;2.90;;;;;;;2.10;100.00;98648.78;4158379;28;20127;-74
2023/04/20 01:47:13;;;;;;;4.00;3.30;;;;;;;2.10;100.00;98645.25;4161220;28;20045;-74
2023/04/20 01:49:13;;;;;;;4.50;3.40;;;;;;;2.11;100.00;98653.13;4165453;28;20136;-74
2023/04/20 01:51:14;;;;;;;4.97;3.50;;;;;;;2.12;100.00;98651.19;4160157;28;20045;-74
2023/04/20 01:53:14;;;;;;;5.68;3.38;;;;;;;2.09;100.00;98644.47;4159395;28;20084;-74
2023/04/20 01:55:15;;;;;;;5.60;3.40;;;;;;;2.09;100.00;98644.47;4160827;28;20490;-74
2023/04/20 01:57:15;;;;;;;4.28;3.13;;;;;;;2.12;100.00;98651.19;4158791;28;20040;-74
2023/04/20 01:59:15;;;;;;;4.18;3.20;;;;;;;2.10;100.00;98643.34;4158064;28;20447;-74
2023/04/20 02:01:16;;;;;;;4.70;3.40;;;;;;;2.11;100.00;98644.94;4161190;28;20038;-74
2023/04/20 02:03:16;;;;;;;4.20;3.25;;;;;;;2.08;100.00;98640.13;4163442;28;20104;-74
2023/04/20 02:05:17;;;;;;;4.57;3.25;;;;;;;2.10;100.00;98650.72;4161712;28;20064;-74
2023/04/20 02:07:17;;;;;;;3.83;2.88;;;;;;;2.09;100.00;98649.13;4141651;28;20351;-74
2023/04/20 02:09:17;;;;;;;4.32;3.30;;;;;;;2.12;100.00;98646.53;4159140;28;20053;-74
2023/04/20 02:11:18;;;;;;;6.80;3.20;;;;;;;2.16;100.00;98649.47;4159317;28;20045;-74
2023/04/20 02:13:18;;;;;;;4.60;3.22;;;;;;;2.17;100.00;98637.41;4158847;28;20507;-74
2023/04/20 02:15:19;;;;;;;4.18;3.20;;;;;;;2.17;100.00;98646.41;4159825;28;20099;-74
2023/04/20 02:17:19;;;;;;;4.80;3.20;;;;;;;2.16;100.00;98644.78;4160258;28;20116;-74
2023/04/20 02:19:20;;;;;;;4.93;3.70;;;;;;;2.17;100.00;98642.88;4160505;28;20139;-74
2023/04/20 02:21:20;;;;;;;4.15;3.33;;;;;;;2.20;100.00;98639.50;4162706;28;20065;-74
2023/04/20 02:23:20;;;;;;;6.43;4.50;;;;;;;2.19;100.00;98638.69;4159217;28;20041;-74
2023/04/20 02:25:21;;;;;;;5.28;4.22;;;;;;;2.14;100.00;98633.38;4158534;28;20553;-74
2023/04/20 02:27:21;;;;;;;5.32;3.85;;;;;;;2.17;100.00;98632.75;4158405;28;20076;-74
2023/04/20 02:29:21;;;;;;;4.75;3.75;;;;;;;2.14;100.00;98632.56;4160743;28;20461;-74
2023/04/20 02:31:22;;;;;;;6.15;4.30;;;;;;;2.13;100.00;98629.03;4161252;28;20497;-74
2023/04/20 02:33:22;;;;;;;5.72;3.60;;;;;;;2.15;100.00;98631.44;4160083;28;20129;-74
2023/04/20 02:35:22;;;;;;;5.13;3.85;;;;;;;2.13;100.00;98630.97;4159068;28;20054;-74
2023/04/20 02:37:23;;;;;;;6.45;3.97;;;;;;;2.08;100.00;98639.31;4158913;28;20486;-74
2023/04/20 02:39:23;;;;;;;6.90;4.57;;;;;;;2.04;100.00;98638.34;4160403;28;20061;-74
2023/04/20 02:41:24;;;;;;;6.60;4.82;;;;;;;2.06;100.00;98641.53;4158723;28;20382;-74
2023/04/20 02:43:24;;;;;;;6.70;5.10;;;;;;;2.03;100.00;98636.72;4159309;28;20046;-74
2023/04/20 02:45:24;;;;;;;7.20;5.13;;;;;;;2.06;100.00;98631.44;4160116;28;20065;-74
2023/04/20 02:47:25;;;;;;;6.18;4.35;;;;;;;2.03;100.00;98637.53;4158875;28;20042;-74
2023/04/20 02:49:25;;;;;;;6.95;4.72;;;;;;;2.04;100.00;98633.69;4159675;28;20046;-74
2023/04/20 02:51:25;;;;;;;5.82;4.30;;;;;;;2.02;100.00;98635.94;4159078;28;20056;-74
2023/04/20 02:53:26;;;;;;;6.03;4.50;;;;;;;2.11;100.00;98635.94;4160615;28;20049;-74
2023/04/20 02:55:26;;;;;;;7.53;4.57;;;;;;;2.10;100.00;98632.41;4159224;28;20132;-74
2023/04/20 02:57:26;;;;;;;5.97;4.55;;;;;;;2.16;100.00;98633.06;4163014;28;20453;-74
2023/04/20 02:59:27;;;;;;;5.72;4.25;;;;;;;2.17;100.00;98634.69;4163057;28;20033;-74
2023/04/20 03:01:27;;;;;;;6.47;4.15;;;;;;;2.19;100.00;98635.16;4161147;28;20394;-74
2023/04/20 03:03:28;;;;;;;5.07;3.80;;;;;;;2.17;100.00;98626.50;4161589;28;20076;-74
2023/04/20 03:05:28;;;;;;;5.68;4.07;;;;;;;2.24;100.00;98635.81;4161233;28;20482;-74
2023/04/20 03:07:28;;;;;;;6.00;4.28;;;;;;;2.26;100.00;98624.56;4161521;28;20269;-74
2023/04/20 03:09:29;;;;;;;6.18;4.18;;;;;;;2.23;100.00;98630.66;4164589;28;20102;-74
2023/04/20 03:11:29;;;;;;;5.60;4.22;;;;;;;2.17;100.00;98630.03;4164713;28;20098;-74
2023/04/20 03:13:30;;;;;;;7.35;4.93;;;;;;;2.13;100.00;98630.97;4163535;28;20067;-74
2023/04/20 03:15:30;;;;;;;7.45;4.72;;;;;;;2.16;100.00;98633.88;4161904;28;20045;-74
2023/04/20 03:17:31;;;;;;;6.40;4.40;;;;;;;2.21;100.00;98630.97;4163761;28;20042;-74
2023/04/20 03:19:31;;;;;;;5.93;4.57;;;;;;;2.15;100.00;98632.28;4163891;28;20041;-74
2023/04/20 03:21:31;;;;;;;7.13;4.60;;;;;;;2.07;100.00;98629.50;4164361;28;20042;-74
2023/04/20 03:23:32;;;;;;;6.47;4.78;;;;;;;2.03;100.00;98636.72;4162584;28;20037;-74
2023/04/20 03:25:32;;;;;;;8.95;5.15;;;;;;;1.93;100.00;98638.63;4163447;28;20500;-74
2023/04/20 03:27:33;;;;;;;6.80;5.03;;;;;;;1.87;100.00;98636.38;4163365;28;20116;-74
2023/04/20 03:29:33;;;;;;;7.00;5.30;;;;;;;1.84;100.00;98637.81;4162831;28;20099;-74
2023/04/20 03:31:33;;;;;;;8.50;4.57;;;;;;;1.79;100.00;98637.94;4162333;28;20453;-74
2023/04/20 03:33:34;;;;;;;6.60;4.60;;;;;;;1.78;100.00;98638.28;4183303;28;20144;-74
2023/04/20 03:35:34;;;;;;;6.63;5.22;;;;;;;1.71;100.00;98635.19;4163700;28;20044;-74
2023/04/20 03:37:38;;;;;;;8.05;5.20;;;;;;;1.69;100.00;98641.78;4160712;28;20447;-74
2023/04/20 03:39:38;;;;;;;6.22;4.95;;;;;;;1.67;100.00;98635.03;4160728;28;20064;-74
2023/04/20 03:41:38;;;;;;;7.88;5.13;;;;;;;1.70;100.00;98648.03;4161509;28;20033;-74
2023/04/20 03:43:40;;;;;;;7.68;4.63;;;;;;;1.71;100.00;98651.56;4161617;28;20085;-74
2023/04/20 03:45:40;;;;;;;7.20;5.03;;;;;;;1.65;100.00;98645.44;4164857;28;20541;-74
2023/04/20 03:47:41;;;;;;;6.53;4.68;;;;;;;1.66;100.00;98649.78;4163348;28;20092;-74
2023/04/20 03:49:41;;;;;;;7.28;5.28;;;;;;;1.62;100.00;98643.34;4164787;28;20046;-74
2023/04/20 03:51:42;;;;;;;7.07;5.00;;;;;;;1.62;100.00;98646.06;4161249;28;20058;-74
2023/04/20 03:53:42;;;;;;;7.72;5.72;;;;;;;1.58;100.00;98643.19;4161480;28;20042;-74
2023/04/20 03:55:42;;;;;;;9.52;6.00;;;;;;;1.65;100.00;98648.97;4161544;28;20044;-74
2023/04/20 03:57:43;;;;;;;9.50;5.35;;;;;;;1.64;100.00;98649.28;4160627;28;20363;-74
2023/04/20 03:59:43;;;;;;;8.45;5.78;;;;;;;1.69;100.00;98649.97;4160831;28;20489;-74
2023/04/20 04:01:43;;;;;;;7.70;5.78;;;;;;;1.73;100.00;98643.84;4161015;28;20063;-74
2023/04/20 04:03:44;;;;;;;7.72;5.70;;;;;;;1.75;100.00;98631.53;4164687;28;20045;-74
2023/04/20 04:05:44;;;;;;;9.18;6.57;;;;;;;1.73;100.00;98627.50;4162750;28;20394;-74
2023/04/20 04:07:44;;;;;;;9.23;6.20;;;;;;;1.76;100.00;98638.59;4160666;28;20041;-74
2023/04/20 04:09:45;;;;;;;7.55;6.25;;;;;;;1.73;100.00;98620.13;4175957;28;20667;-74
2023/04/20 04:11:45;;;;;;;8.52;6.55;;;;;;;1.73;100.00;98632.94;4160374;28;20045;-74
2023/04/20 04:13:45;;;;;;;9.32;6.13;;;;;;;1.76;100.00;98626.88;4160110;28;20068;-74
2023/04/20 04:15:46;;;;;;;9.82;6.75;;;;;;;1.72;100.00;98623.16;4160990;28;20045;-74
2023/04/20 04:17:47;;;;;;;9.57;6.90;;;;;;;1.67;100.00;98626.84;4146697;28;20068;-74
2023/04/20 04:19:47;;;;;;;8.70;6.18;;;;;;;1.66;100.00;98627.97;4164571;28;20159;-74
2023/04/20 04:21:47;;;;;;;9.65;6.30;;;;;;;1.68;100.00;98639.38;4159888;28;20465;-74
2023/04/20 04:23:48;;;;;;;9.45;6.50;;;;;;;1.63;100.00;98637.56;4159449;28;20060;-74
2023/04/20 04:25:48;;;;;;;8.50;6.45;;;;;;;1.62;100.00;98626.97;4160886;28;20049;-74
2023/04/20 04:27:49;;;;;;;10.43;7.03;;;;;;;1.61;100.00;98628.09;4159665;28;20042;-74
2023/04/20 04:29:50;;;;;;;10.45;6.88;;;;;;;1.62;100.00;98630.50;4161391;28;20132;-74
2023/04/20 04:31:52;;;;;;;8.05;5.90;;;;;;;1.67;100.00;98641.28;4160776;28;20038;-74
2023/04/20 04:33:52;;;;;;;11.23;7.13;;;;;;;1.64;100.00;98625.53;4161238;28;20132;-74
2023/04/20 04:35:52;;;;;;;10.77;6.88;;;;;;;1.65;100.00;98640.78;4161363;28;20125;-74
2023/04/20 04:37:52;;;;;;;9.13;6.80;;;;;;;1.67;100.00;98638.56;4159850;28;20038;-74
2023/04/20 04:39:53;;;;;;;9.27;6.70;;;;;;;1.67;100.00;98643.22;4159937;28;20072;-74
2023/04/20 04:41:53;;;;;;;11.88;7.47;;;;;;;1.68;100.00;98636.63;4166246;28;20068;-74
2023/04/20 04:43:54;;;;;;;9.60;6.55;;;;;;;1.69;100.00;98630.06;4159863;28;20037;-74
2023/04/20 04:45:54;;;;;;;9.63;7.07;;;;;;;1.72;100.00;98632.16;4163013;28;20049;-74
2023/04/20 04:47:55;;;;;;;11.30;7.38;;;;;;;1.76;100.00;98635.06;4161513;28;20111;-74
2023/04/20 04:49:56;;;;;;;9.20;6.47;;;;;;;1.78;100.00;98644.53;4161719;28;20517;-74
2023/04/20 04:51:56;;;;;;;10.98;7.10;;;;;;;1.80;100.00;98641.47;4162027;28;20165;-74
2023/04/20 04:53:57;;;;;;;9.48;7.07;;;;;;;1.85;100.00;98644.88;4159697;28;20110;-74
2023/04/20 04:55:57;;;;;;;10.02;7.05;;;;;;;1.88;100.00;98646.97;4161445;28;20049;-74
2023/04/20 04:57:57;;;;;;;8.73;6.72;;;;;;;1.89;100.00;98643.09;4164534;28;20278;-74
2023/04/20 04:59:58;;;;;;;11.00;7.45;;;;;;;1.92;100.00;98655.34;4161111;28;20053;-74
2023/04/20 05:01:58;;;;;;;8.73;6.93;;;;;;;1.90;100.00;98649.38;4160054;28;20065;-74
2023/04/20 05:03:59;;;;;;;10.65;7.22;;;;;;;1.92;100.00;98647.94;4161248;28;20048;-74
2023/04/20 05:06:00;;;;;;;11.70;7.05;;;;;;;1.95;100.00;98651.97;4115837;28;20761;-74
2023/04/20 05:08:00;;;;;;;10.52;7.22;;;;;;;1.95;100.00;98652.75;4117448;28;20041;-74
2023/04/20 05:10:01;;;;;;;9.88;6.45;;;;;;;1.92;100.00;98649.88;4142401;28;20605;-74
2023/04/20 05:12:02;;;;;;;11.13;7.53;;;;;;;1.95;100.00;98654.69;4160090;28;20041;-74
2023/04/20 05:14:02;;;;;;;10.07;6.80;;;;;;;1.96;100.00;98653.56;4159885;28;20112;-74
2023/04/20 05:16:03;;;;;;;10.82;7.20;;;;;;;1.96;100.00;98656.28;4161170;28;20065;-74
2023/04/20 05:18:04;;;;;;;10.15;7.20;;;;;;;2.00;100.00;98661.94;4158950;28;20079;-74
2023/04/20 05:20:06;;;;;;;10.27;6.65;;;;;;;2.02;100.00;98654.22;4157943;28;20092;-74
2023/04/20 05:22:06;;;;;;;10.00;6.72;;;;;;;2.05;100.00;98662.56;4159874;28;20029;-74
2023/04/20 05:24:06;;;;;;;10.60;7.90;;;;;;;2.08;100.00;98666.63;4159942;28;20041;-74
2023/04/20 05:26:07;;;;;;;8.88;6.68;;;;;;;2.07;100.00;98665.81;4162780;28;20036;-74
2023/04/20 05:28:07;;;;;;;10.15;6.60;;;;;;;2.09;100.00;98671.75;4160283;28;20033;-74
2023/04/20 05:30:08;;;;;;;9.90;7.38;;;;;;;2.12;100.00;98670.31;4160348;28;20022;-74
2023/04/20 05:32:08;;;;;;;10.32;6.50;;;;;;;2.12;100.00;98671.09;4163812;28;20040;-74
2023/04/20 05:34:08;;;;;;;11.43;7.28;;;;;;;2.14;100.00;98668.84;4159964;28;20100;-74
2023/04/20 05:36:09;;;;;;;10.63;7.90;;;;;;;2.19;100.00;98667.91;4159319;28;20053;-74
2023/04/20 05:38:09;;;;;;;10.75;7.25;;;;;;;2.24;100.00;98668.59;4159294;28;20025;-74
2023/04/20 05:40:11;;;;;;;11.40;7.38;;;;;;;2.25;100.00;98672.91;4158331;28;20505;-74
2023/04/20 05:42:12;;;;;;;11.30;7.28;;;;;;;2.29;100.00;98667.59;4163306;28;20025;-74
2023/04/20 05:44:12;;;;;;;11.07;7.55;;;;;;;2.34;100.00;98674.84;4156662;28;20164;-74
2023/04/20 05:46:12;;;;;;;11.27;6.93;;;;;;;2.37;100.00;98661.34;4159766;28;20124;-74
2023/04/20 05:48:13;;;;;;;12.52;7.68;;;;;;;2.40;100.00;98666.19;4163375;28;20037;-74
2023/04/20 05:50:13;;;;;;;11.65;7.53;;;;;;;2.43;100.00;98673.75;4162369;28;20043;-74
2023/04/20 05:52:13;;;;;;;10.25;6.65;;;;;;;2.47;100.00;98673.88;4161840;28;20376;-75
2023/04/20 05:54:14;;;;;;;9.88;6.72;;;;;;;2.48;100.00;98676.31;4159980;28;20040;-74
2023/04/20 05:56:14;;;;;;;9.40;6.63;;;;;;;2.51;100.00;98675.69;4161880;28;20021;-74
2023/04/20 05:58:15;;;;;;;9.23;6.65;;;;;;;2.56;100.00;98676.63;4161522;28;20122;-74
2023/04/20 06:00:16;;;;;;;12.52;7.00;;;;;;;2.58;100.00;98674.41;4161884;28;20033;-74
2023/04/20 06:02:17;;;;;;;11.45;7.43;;;;;;;2.62;100.00;98678.88;4161465;28;20410;-74
2023/04/20 06:04:17;;;;;;;12.80;8.38;;;;;;;2.64;100.00;98679.38;4160728;28;20022;-74
2023/04/20 06:06:17;;;;;;;11.50;7.22;;;;;;;2.69;100.00;98684.69;4159766;28;20104;-74
2023/04/20 06:08:18;;;;;;;12.30;8.00;;;;;;;2.68;100.00;98677.63;4160779;28;20490;-74
2023/04/20 06:10:18;;;;;;;11.88;7.53;;;;;;;2.65;100.00;98672.81;4162827;28;20120;-74
2023/04/20 06:12:18;;;;;;;14.63;8.30;;;;;;;2.72;100.00;98681.28;4162407;28;20307;-74
2023/04/20 06:14:19;;;;;;;12.93;7.60;;;;;;;2.67;100.00;98667.81;4160882;28;20200;-74
2023/04/20 06:16:19;;;;;;;11.52;7.65;;;;;;;2.69;100.00;98672.94;4159827;28;20596;-74
2023/04/20 06:18:20;;;;;;;12.38;8.10;;;;;;;2.72;100.00;98678.56;4158331;28;20037;-74
2023/04/20 06:20:20;;;;;;;14.32;8.43;;;;;;;2.70;100.00;98677.28;4159042;28;20038;-74
2023/04/20 06:22:21;;;;;;;16.25;9.55;;;;;;;2.79;100.00;98681.63;4158011;28;20073;-74
2023/04/20 06:24:22;;;;;;;14.18;9.48;;;;;;;2.80;100.00;98690.63;4158588;28;20055;-74
2023/04/20 06:26:22;;;;;;;18.23;11.20;;;;;;;2.79;100.00;98683.56;4157229;28;20045;-74
2023/04/20 06:28:22;;;;;;;24.95;14.85;;;;;;;2.84;100.00;98701.72;4164128;28;20095;-74
2023/04/20 06:30:23;;;;;;;26.10;14.32;;;;;;;2.81;100.00;98692.22;4165026;28;20120;-74
2023/04/20 06:32:23;;;;;;;18.13;11.35;;;;;;;2.86;100.00;98694.00;4161512;28;20043;-74
2023/04/20 06:34:23;;;;;;;20.63;11.85;;;;;;;2.85;100.00;98684.19;4163687;28;20442;-74
2023/04/20 06:36:23;;;;;;;22.30;11.57;;;;;;;2.88;100.00;98692.53;4166161;28;20049;-74
2023/04/20 06:38:24;;;;;;;20.17;11.18;;;;;;;2.95;100.00;98695.59;4165459;28;20045;-73
2023/04/20 06:40:28;;;;;;;22.27;12.93;;;;;;;2.98;100.00;98694.97;4160476;28;20493;-73
2023/04/20 06:42:28;;;;;;;22.25;11.73;;;;;;;3.03;100.00;98697.53;4160499;28;20124;-74
2023/04/20 06:44:28;;;;;;;23.77;11.95;;;;;;;3.05;100.00;98700.72;4165897;28;20061;-74
2023/04/20 06:46:29;;;;;;;21.02;11.90;;;;;;;3.10;100.00;98697.03;4161448;28;20364;-74
2023/04/20 06:48:29;;;;;;;21.13;12.43;;;;;;;3.14;100.00;98702.66;4163918;28;20176;-74
2023/04/20 06:50:30;;;;;;;21.38;11.85;;;;;;;3.19;100.00;98694.31;4167806;28;20408;-73
2023/04/20 06:52:30;;;;;;;22.48;12.18;;;;;;;3.24;100.00;98691.41;4161061;28;20042;-73
2023/04/20 06:54:31;;;;;;;21.90;12.63;;;;;;;3.29;100.00;98707.63;4160167;28;20037;-74
2023/04/20 06:56:32;;;;;;;24.17;13.90;;;;;;;3.32;100.00;98702.34;4161987;28;20036;-74
2023/04/20 06:58:32;;;;;;;20.88;11.98;;;;;;;3.29;100.00;98713.91;4163582;28;20533;-74
2023/04/20 07:00:32;;;;;;;26.00;12.73;;;;;;;3.32;100.00;98712.47;4160424;28;20044;-74
2023/04/20 07:02:47;;;;;;;22.50;14.35;;;;;;;3.36;100.00;98714.22;4160702;28;20084;-74
2023/04/20 07:04:47;;;;;;;23.50;13.10;;;;;;;3.39;100.00;98710.00;4165977;28;20032;-76
2023/04/20 07:06:48;;;;;;;19.48;12.32;;;;;;;3.41;100.00;98713.25;4160742;28;20476;-76
2023/04/20 07:08:48;;;;;;;22.02;13.43;;;;;;;3.47;100.00;98711.13;4159602;28;20049;-78
2023/04/20 07:10:49;;;;;;;18.55;10.95;;;;;;;3.50;100.00;98714.03;4163471;28;20056;-72
2023/04/20 07:12:49;;;;;;;21.13;11.88;;;;;;;3.53;100.00;98715.31;4161618;28;20055;-76
2023/04/20 07:14:50;;;;;;;20.92;11.82;;;;;;;3.53;100.00;98710.63;4176216;28;20037;-75
2023/04/20 07:16:53;;;;;;;18.83;11.02;;;;;;;3.53;100.00;98713.38;4175603;28;20099;-75
2023/04/20 07:18:54;;;;;;;20.98;11.70;;;;;;;3.55;100.00;98710.31;4160719;28;20046;-75
2023/04/20 07:20:54;;;;;;;20.05;11.90;;;;;;;3.53;100.00;98707.91;4160737;28;20134;-75
2023/04/20 07:22:54;;;;;;;21.40;11.27;;;;;;;3.55;100.00;98713.03;4161383;28;20427;-74
2023/04/20 07:24:55;;;;;;;20.08;10.73;;;;;;;3.53;100.00;98699.69;4160679;28;20144;-75
2023/04/20 07:26:56;;;;;;;18.23;11.23;;;;;;;3.57;100.00;98697.94;4165341;28;20511;-74
2023/04/20 07:28:56;;;;;;;21.73;11.20;;;;;;;3.60;100.00;98707.41;4164161;28;20049;-75
2023/04/20 07:30:56;;;;;;;21.13;11.38;;;;;;;3.67;100.00;98707.72;4160525;28;20059;-75
2023/04/20 07:32:57;;;;;;;17.30;10.40;;;;;;;3.74;100.00;98704.47;4159877;28;20478;-75
2023/04/20 07:34:57;;;;;;;16.95;10.57;;;;;;;3.84;100.00;98707.66;4160801;28;20045;-75
2023/04/20 07:36:57;;;;;;;17.88;11.32;;;;;;;4.00;100.00;98707.91;4162919;28;20132;-75
2023/04/20 07:38:58;;;;;;;20.45;12.88;;;;;;;4.07;100.00;98705.47;4162706;28;20108;-75
2023/04/20 07:40:58;;;;;;;19.83;11.82;;;;;;;4.13;100.00;98711.53;4159400;28;20119;-75
2023/04/20 07:42:58;;;;;;;17.20;11.23;;;;;;;4.21;100.00;98710.69;4160502;28;20136;-75
2023/04/20 07:44:59;;;;;;;16.17;10.57;;;;;;;4.26;100.00;98712.44;4162238;28;20265;-75
2023/04/20 07:46:59;;;;;;;17.55;10.68;;;;;;;4.31;100.00;98715.81;4159889;28;20045;-75
2023/04/20 07:48:59;;;;;;;18.30;10.45;;;;;;;4.38;100.00;98718.00;4161302;28;20077;-75
2023/04/20 07:51:00;;;;;;;15.23;9.85;;;;;;;4.38;100.00;98713.31;4160376;28;20084;-75
2023/04/20 07:53:01;;;;;;;17.73;10.90;;;;;;;4.45;100.00;98707.34;4162834;28;20037;-75
2023/04/20 07:55:01;;;;;;;16.40;10.43;;;;;;;4.55;100.00;98711.63;4161261;28;20038;-75
2023/04/20 07:57:02;;;;;;;19.23;11.23;;;;;;;4.61;100.00;98713.84;4160456;28;20048;-75
2023/04/20 07:59:02;;;;;;;14.50;10.18;;;;;;;4.76;100.00;98710.50;4166380;28;20068;-75
2023/04/20 08:01:03;;;;;;;16.20;9.40;;;;;;;4.89;100.00;98713.34;4163540;28;20041;-75
2023/04/20 08:03:04;;;;;;;12.40;8.60;;;;;;;4.96;100.00;98703.41;4159371;28;20053;-75
2023/04/20 08:05:05;;;;;;;11.68;7.68;;;;;;;5.03;100.00;98705.63;4160564;28;20074;-75
2023/04/20 08:07:05;;;;;;;11.88;8.50;;;;;;;5.06;100.00;98705.75;4161580;28;20095;-74
2023/04/20 08:09:05;;;;;;;12.43;7.50;;;;;;;5.10;100.00;98699.59;4159777;28;20446;-75
2023/04/20 08:11:07;;;;;;;9.65;6.78;;;;;;;5.15;100.00;98702.13;4159443;28;20045;-75
2023/04/20 08:13:07;;;;;;;10.48;7.55;;;;;;;5.15;100.00;98705.69;4160228;28;20032;-75
2023/04/20 08:15:08;;;;;;;10.18;7.00;;;;;;;5.18;100.00;98698.72;4162743;28;20136;-75
2023/04/20 08:17:08;;;;;;;12.30;6.78;;;;;;;5.15;100.00;98704.88;4159163;28;20041;-75
2023/04/20 08:19:09;;;;;;;11.68;8.40;;;;;;;5.13;100.00;98704.41;4160234;28;20488;-75
2023/04/20 08:21:09;;;;;;;13.73;8.43;;;;;;;5.14;100.00;98706.81;4160211;28;20128;-75
2023/04/20 08:23:09;;;;;;;11.68;7.15;;;;;;;5.14;100.00;98701.34;4164054;28;20045;-75
2023/04/20 08:25:10;;;;;;;11.48;8.10;;;;;;;5.12;100.00;98705.53;4162415;28;20092;-75
2023/04/20 08:27:10;;;;;;;11.93;8.10;;;;;;;5.13;100.00;98712.63;4160974;28;20465;-75
2023/04/20 08:29:10;;;;;;;11.00;7.70;;;;;;;5.12;100.00;98709.06;4159935;28;20132;-75
2023/04/20 08:31:13;;;;;;;12.38;8.38;;;;;;;5.04;100.00;98704.47;4160721;28;20248;-74
2023/04/20 08:33:14;;;;;;;13.13;8.13;;;;;;;4.98;100.00;98708.56;4160103;28;20041;-75
2023/04/20 08:35:14;;;;;;;13.00;9.07;;;;;;;4.87;100.00;98704.63;4159060;28;20045;-74
2023/04/20 08:37:15;;;;;;;14.40;9.65;;;;;;;4.92;100.00;98720.88;4160178;28;20465;-75
2023/04/20 08:39:19;;;;;;;17.90;10.48;;;;;;;4.89;100.00;98710.59;4160879;28;20117;-74
2023/04/20 08:41:20;;;;;;;15.70;10.30;;;;;;;4.88;100.00;98712.53;4160052;28;20040;-75
2023/04/20 08:43:20;;;;;;;18.95;11.65;;;;;;;4.91;100.00;98706.38;4157628;28;20512;-75
2023/04/20 08:45:21;;;;;;;17.67;10.45;;;;;;;4.99;100.00;98704.69;4159477;28;20039;-75
2023/04/20 08:47:22;;;;;;;17.20;10.10;;;;;;;5.04;100.00;98699.78;4159800;28;20072;-75
2023/04/20 08:49:26;;;;;;;17.33;10.82;;;;;;;5.14;100.00;98697.78;4159531;28;20367;-75
2023/04/20 08:51:26;;;;;;;15.65;10.88;;;;;;;5.17;100.00;98708.09;4161327;28;20077;-76
2023/04/20 08:53:27;;;;;;;16.50;10.20;;;;;;;5.16;100.00;98712.78;4159399;28;20661;-75
2023/04/20 08:55:27;;;;;;;17.38;9.63;;;;;;;5.01;100.00;98702.41;4158826;28;20086;-76
2023/04/20 08:57:27;;;;;;;15.50;10.23;;;;;;;4.90;100.00;98715.72;4158675;28;20129;-75
2023/04/20 08:59:29;;;;;;;17.30;10.15;;;;;;;4.80;100.00;98716.13;4159710;28;20046;-75
2023/04/20 09:01:31;;;;;;;16.90;10.32;;;;;;;4.79;100.00;98711.78;4160086;28;20053;-75
2023/04/20 09:03:40;;;;;;;16.17;10.10;;;;;;;4.79;100.00;98709.81;4158082;28;20378;-75
2023/04/20 09:05:43;;;;;;;13.50;9.02;;;;;;;4.78;100.00;98691.78;4146343;28;20037;-75
2023/04/20 09:07:51;;;;;;;14.52;9.55;;;;;;;4.85;100.00;98704.97;4158979;28;20061;-75
2023/04/20 09:09:54;;;;;;;14.75;10.40;;;;;;;4.94;100.00;98700.19;4159297;28;20029;-75
2023/04/20 09:12:10;;;;;;;13.93;9.50;;;;;;;5.14;100.00;98704.09;4163985;28;20053;-75
2023/04/20 09:14:13;;;;;;;15.05;9.93;;;;;;;5.39;100.00;98702.22;4157437;28;20486;-75
2023/04/20 09:16:14;;;;;;;15.48;9.30;;;;;;;5.59;100.00;98706.06;4159570;28;20024;-75
2023/04/20 09:18:14;;;;;;;15.23;10.10;;;;;;;5.73;100.00;98706.53;4158818;28;20035;-75
2023/04/20 09:20:15;;;;;;;14.98;9.55;;;;;;;5.91;100.00;98693.44;4161761;28;20027;-75
2023/04/20 09:22:15;;;;;;;13.95;9.43;;;;;;;6.01;100.00;98698.47;4161802;28;20060;-75